Time;durP1;ratioP1;P1;durP2;ratioP2;P2;SDS_P1;SDS_P2;PMS_P1;PMS_P2;Temp;Humidity;BMP_temperature;BMP_pressure;BME280_temperature;BME280_humidity;BME280_pressure;Samples;Min_cycle;Max_cycle;Signal;HPM_P1;HPM_P2
2020/12/14 00:00:19;;;;;;;60.58;34.10;;;;;;;0.39;100.00;95518.28;1028246;28;20023;-68
2020/12/14 00:00:50;;;;;;;61.63;35.03;;;;;;;0.45;100.00;95534.75;1030610;28;20015;-72
2020/12/14 00:01:20;;;;;;;53.50;31.35;;;;;;;0.52;100.00;95551.03;1030209;28;20056;-70
2020/12/14 00:01:51;;;;;;;65.55;36.22;;;;;;;0.41;100.00;95524.06;1022003;28;20016;-69
2020/12/14 00:02:21;;;;;;;60.97;33.75;;;;;;;0.46;100.00;95544.88;1026485;28;20041;-70
2020/12/14 00:02:51;;;;;;;64.30;34.08;;;;;;;0.46;100.00;95542.28;1025117;28;20069;-68
2020/12/14 00:03:22;;;;;;;62.10;35.63;;;;;;;0.46;100.00;95544.09;1026358;28;20030;-68
2020/12/14 00:03:52;;;;;;;68.35;37.20;;;;;;;0.40;100.00;95534.56;1033478;28;20018;-69
2020/12/14 00:04:23;;;;;;;64.90;35.03;;;;;;;0.44;100.00;95536.56;1035368;28;20022;-69
2020/12/14 00:04:54;;;;;;;65.70;35.67;;;;;;;0.32;100.00;95527.84;1034392;28;20057;-70
2020/12/14 00:05:24;;;;;;;69.32;36.33;;;;;;;0.39;100.00;95544.09;1026309;28;20427;-69
2020/12/14 00:05:55;;;;;;;70.90;37.28;;;;;;;0.39;100.00;95543.31;1026017;28;20084;-71
2020/12/14 00:06:25;;;;;;;65.38;34.80;;;;;;;0.36;100.00;95541.94;1025522;28;20033;-71
2020/12/14 00:06:56;;;;;;;77.00;36.83;;;;;;;0.37;100.00;95540.13;1034539;28;20021;-71
2020/12/14 00:07:26;;;;;;;75.93;37.55;;;;;;;0.35;100.00;95539.56;1034171;28;20018;-67
2020/12/14 00:07:57;;;;;;;87.57;39.58;;;;;;;0.34;100.00;95538.78;1030356;28;20018;-68
2020/12/14 00:08:27;;;;;;;98.53;41.83;;;;;;;0.33;100.00;95547.50;1030272;28;20019;-69
2020/12/14 00:08:58;;;;;;;81.88;38.85;;;;;;;0.31;100.00;95540.97;1022364;28;20027;-69
2020/12/14 00:09:31;;;;;;;71.70;38.78;;;;;;;0.26;100.00;95533.03;1026481;28;20025;-70
2020/12/14 00:10:02;;;;;;;81.93;37.75;;;;;;;0.23;100.00;95534.22;1035486;28;20486;-71
2020/12/14 00:10:32;;;;;;;83.96;37.92;;;;;;;0.31;100.00;95540.97;1026216;28;20023;-69
2020/12/14 00:11:03;;;;;;;82.20;37.72;;;;;;;0.26;100.00;95533.81;1026915;28;20471;-68
2020/12/14 00:11:34;;;;;;;83.90;37.00;;;;;;;0.29;100.00;95537.78;1034467;28;20029;-71
2020/12/14 00:12:05;;;;;;;84.28;38.17;;;;;;;0.27;100.00;95539.78;1038459;28;20030;-68
2020/12/14 00:12:35;;;;;;;114.78;41.20;;;;;;;0.14;100.00;95520.78;1034346;28;20030;-70
2020/12/14 00:13:06;;;;;;;92.80;37.78;;;;;;;0.25;100.00;95532.25;1026668;28;20110;-70
2020/12/14 00:13:36;;;;;;;108.03;40.25;;;;;;;0.24;100.00;95533.25;1030337;28;20111;-69
2020/12/14 00:14:07;;;;;;;90.00;38.17;;;;;;;0.11;100.00;95518.59;1026365;28;20073;-69
2020/12/14 00:14:37;;;;;;;115.72;38.15;;;;;;;0.15;100.00;95530.09;1030133;28;20573;-71
2020/12/14 00:15:08;;;;;;;125.53;40.03;;;;;;;0.14;100.00;95533.66;1030659;28;20018;-69
2020/12/14 00:15:38;;;;;;;97.18;38.25;;;;;;;0.12;100.00;95527.91;1034295;28;20030;-68
2020/12/14 00:16:09;;;;;;;124.20;40.03;;;;;;;0.11;100.00;95531.50;1030711;28;20041;-67
2020/12/14 00:16:40;;;;;;;118.38;39.42;;;;;;;-0.01;100.00;95526.13;1033637;28;20026;-70
2020/12/14 00:17:11;;;;;;;108.50;40.12;;;;;;;-0.13;100.00;95507.13;1034480;28;20025;-70
2020/12/14 00:17:41;;;;;;;127.70;43.07;;;;;;;0.07;100.00;95535.47;1034397;28;20018;-68
2020/12/14 00:18:12;;;;;;;127.80;41.93;;;;;;;0.06;100.00;95533.88;1026363;28;20129;-69
2020/12/14 00:18:42;;;;;;;134.07;44.50;;;;;;;0.05;100.00;95534.88;1030334;28;20026;-71
2020/12/14 00:19:13;;;;;;;133.47;42.17;;;;;;;0.04;100.00;95530.72;1030368;28;20022;-68
2020/12/14 00:19:43;;;;;;;165.83;45.93;;;;;;;-0.07;100.00;95526.16;1030328;28;20033;-69
2020/12/14 00:20:14;;;;;;;151.57;44.43;;;;;;;0.03;100.00;95538.63;1034397;28;20025;-71
2020/12/14 00:20:44;;;;;;;158.53;47.67;;;;;;;0.01;100.00;95538.84;1030117;28;20825;-70
2020/12/14 00:21:16;;;;;;;144.38;41.97;;;;;;;-0.25;100.00;95504.38;1024430;28;20029;-67
2020/12/14 00:21:50;;;;;;;142.93;42.67;;;;;;;-0.10;100.00;95534.28;1025401;28;20045;-70
2020/12/14 00:22:20;;;;;;;124.22;40.22;;;;;;;-0.07;100.00;95544.19;1023058;28;20027;-69
2020/12/14 00:22:51;;;;;;;155.83;42.93;;;;;;;-0.10;100.00;95549.75;1026963;28;20042;-70
2020/12/14 00:23:21;;;;;;;153.40;42.37;;;;;;;-0.15;100.00;95537.47;1024740;28;20031;-69
2020/12/14 00:23:52;;;;;;;161.07;44.20;;;;;;;-0.13;100.00;95542.44;1047956;28;20463;-69
2020/12/14 00:24:23;;;;;;;138.27;40.53;;;;;;;-0.21;100.00;95532.31;1055636;28;20026;-69
2020/12/14 00:24:53;;;;;;;114.97;40.07;;;;;;;-0.14;100.00;95543.41;1046730;28;20036;-68
2020/12/14 00:25:23;;;;;;;109.87;40.00;;;;;;;-0.16;100.00;95546.22;1034243;28;20493;-69
2020/12/14 00:25:54;;;;;;;117.50;42.40;;;;;;;-0.17;100.00;95551.56;1034477;28;20079;-69
2020/12/14 00:26:24;;;;;;;103.37;41.03;;;;;;;-0.20;100.00;95551.94;1030277;28;20033;-69
2020/12/14 00:26:55;;;;;;;97.27;41.87;;;;;;;-0.27;100.00;95537.31;1033950;28;20057;-70
2020/12/14 00:27:25;;;;;;;85.47;39.33;;;;;;;-0.20;100.00;95541.63;1030225;28;20475;-69
2020/12/14 00:27:56;;;;;;;84.97;40.73;;;;;;;-0.19;100.00;95548.41;1026304;28;20062;-70
2020/12/14 00:28:26;;;;;;;104.77;42.27;;;;;;;-0.13;100.00;95550.97;1026215;28;20023;-70
2020/12/14 00:28:57;;;;;;;84.00;38.73;;;;;;;-0.13;100.00;95550.19;1026069;28;20645;-68
2020/12/14 00:29:27;;;;;;;76.43;38.93;;;;;;;-0.21;100.00;95540.84;1026240;28;20027;-68
2020/12/14 00:29:58;;;;;;;74.33;37.63;;;;;;;-0.12;100.00;95551.75;1027172;28;20034;-66
2020/12/14 00:30:28;;;;;;;85.87;41.10;;;;;;;-0.08;100.00;95556.31;1030268;28;20858;-68
2020/12/14 00:30:59;;;;;;;90.00;41.67;;;;;;;-0.09;100.00;95557.31;1026381;28;20039;-69
2020/12/14 00:31:29;;;;;;;80.90;39.73;;;;;;;-0.10;100.00;95560.06;1025630;28;20031;-68
2020/12/14 00:32:00;;;;;;;76.63;39.57;;;;;;;-0.10;100.00;95557.50;1029687;28;20052;-68
2020/12/14 00:32:30;;;;;;;71.77;38.03;;;;;;;-0.13;100.00;95555.34;1029771;28;20562;-68
2020/12/14 00:33:01;;;;;;;91.50;41.87;;;;;;;-0.10;100.00;95560.06;1022023;28;20039;-69
2020/12/14 00:33:31;;;;;;;84.43;40.97;;;;;;;-0.16;100.00;95548.78;1026225;28;20081;-69
2020/12/14 00:34:02;;;;;;;83.20;40.80;;;;;;;-0.17;100.00;95543.81;1030321;28;20026;-69
2020/12/14 00:34:32;;;;;;;78.27;40.13;;;;;;;-0.15;100.00;95552.16;1026552;28;20653;-68
2020/12/14 00:35:03;;;;;;;95.40;45.03;;;;;;;-0.13;100.00;95543.25;1034171;28;20026;-69
2020/12/14 00:35:33;;;;;;;86.60;41.67;;;;;;;-0.03;100.00;95556.50;1030185;28;20026;-70
2020/12/14 00:36:03;;;;;;;84.63;41.07;;;;;;;-0.05;100.00;95555.13;1030353;28;20027;-68
2020/12/14 00:36:34;;;;;;;81.50;41.03;;;;;;;-0.04;100.00;95554.91;1030369;28;20527;-70
2020/12/14 00:37:04;;;;;;;84.70;42.63;;;;;;;-0.05;100.00;95552.53;1030105;28;20027;-70
2020/12/14 00:37:35;;;;;;;79.20;40.97;;;;;;;-0.13;100.00;95545.03;1030280;28;20104;-70
2020/12/14 00:38:05;;;;;;;84.50;41.43;;;;;;;-0.13;100.00;95545.03;1026254;28;20023;-67
2020/12/14 00:38:36;;;;;;;86.07;41.50;;;;;;;-0.12;100.00;95546.59;1020272;28;20047;-68
2020/12/14 00:39:06;;;;;;;82.73;41.00;;;;;;;-0.05;100.00;95557.69;1026363;28;20474;-68
2020/12/14 00:39:37;;;;;;;74.10;38.60;;;;;;;-0.04;100.00;95559.28;1022049;29;20031;-69
2020/12/14 00:40:07;;;;;;;69.00;37.53;;;;;;;-0.11;100.00;95548.19;1026290;28;20034;-69
2020/12/14 00:40:38;;;;;;;73.50;38.83;;;;;;;-0.19;100.00;95535.50;1030335;28;20163;-69
2020/12/14 00:41:17;;;;;;;75.60;39.03;;;;;;;-0.06;100.00;95564.66;1038472;28;20017;-67
2020/12/14 00:41:48;;;;;;;74.95;39.60;;;;;;;-0.04;100.00;95559.28;1046611;28;20083;-65
2020/12/14 00:42:18;;;;;;;79.83;40.90;;;;;;;-0.03;100.00;95560.88;1040111;28;20051;-70
2020/12/14 00:42:49;;;;;;;78.47;38.77;;;;;;;-0.12;100.00;95546.59;1044500;28;20025;-68
2020/12/14 00:43:19;;;;;;;77.63;39.53;;;;;;;-0.03;100.00;95563.47;1047015;28;20393;-69
2020/12/14 00:43:50;;;;;;;69.17;37.43;;;;;;;-0.03;100.00;95566.03;1032734;28;20026;-69
2020/12/14 00:44:20;;;;;;;76.97;38.83;;;;;;;-0.04;100.00;95567.00;1030318;28;20014;-68
2020/12/14 00:44:51;;;;;;;66.77;37.10;;;;;;;-0.10;100.00;95560.06;1030607;28;20015;-69
2020/12/14 00:45:21;;;;;;;60.93;33.63;;;;;;;-0.05;100.00;95566.22;1026002;28;20023;-71
2020/12/14 00:45:51;;;;;;;57.03;33.80;;;;;;;-0.06;100.00;95566.44;1026369;28;20035;-70
2020/12/14 00:46:22;;;;;;;70.23;37.27;;;;;;;-0.06;100.00;95571.59;1030331;28;20026;-69
2020/12/14 00:46:53;;;;;;;55.53;33.37;;;;;;;-0.06;100.00;95572.38;1026515;28;20588;-68
2020/12/14 00:47:23;;;;;;;59.33;32.83;;;;;;;-0.11;100.00;95569.59;1038064;28;20017;-67
2020/12/14 00:47:53;;;;;;;66.70;35.03;;;;;;;-0.13;100.00;95561.28;1026190;28;20837;-68
2020/12/14 00:48:24;;;;;;;74.60;36.93;;;;;;;-0.15;100.00;95572.78;1022336;28;20023;-69
2020/12/14 00:48:54;;;;;;;66.83;35.10;;;;;;;-0.17;100.00;95570.38;1026312;28;20061;-68
2020/12/14 00:49:25;;;;;;;61.73;34.20;;;;;;;-0.26;100.00;95562.09;1022235;28;20051;-69
2020/12/14 00:49:55;;;;;;;59.97;34.53;;;;;;;-0.17;100.00;95574.75;1022481;28;20038;-70
2020/12/14 00:50:26;;;;;;;63.40;37.60;;;;;;;-0.14;100.00;95572.56;1026204;28;20030;-69
2020/12/14 00:50:56;;;;;;;78.03;40.17;;;;;;;-0.16;100.00;95571.22;1026292;28;20039;-69
2020/12/14 00:51:27;;;;;;;56.73;33.30;;;;;;;-0.20;100.00;95572.56;1033668;28;20056;-67
2020/12/14 00:52:04;;;;;;;68.50;39.25;;;;;;;-0.12;100.00;95577.53;1030022;28;20064;-69
2020/12/14 00:52:34;;;;;;;69.30;38.38;;;;;;;-0.14;100.00;95577.72;1031190;28;20042;-69
2020/12/14 00:53:04;;;;;;;81.93;42.50;;;;;;;-0.12;100.00;95569.81;1035236;28;20039;-69
2020/12/14 00:53:35;;;;;;;80.60;40.83;;;;;;;-0.14;100.00;95570.00;1035198;28;20030;-69
2020/12/14 00:54:07;;;;;;;75.00;39.50;;;;;;;-0.24;100.00;95549.75;1025776;28;20093;-70
2020/12/14 00:54:38;;;;;;;96.82;45.42;;;;;;;-0.14;100.00;95571.78;1018246;28;20110;-70
2020/12/14 00:55:08;;;;;;;75.27;40.07;;;;;;;-0.11;100.00;95573.97;1022308;29;20485;-70
2020/12/14 00:55:39;;;;;;;80.57;41.17;;;;;;;-0.11;100.00;95568.81;1025846;28;20030;-68
2020/12/14 00:56:09;;;;;;;82.13;41.83;;;;;;;-0.19;100.00;95556.13;1026833;28;20029;-68
2020/12/14 00:56:40;;;;;;;66.83;38.77;;;;;;;-0.10;100.00;95570.38;1030194;28;20018;-69
2020/12/14 00:57:11;;;;;;;73.05;39.65;;;;;;;-0.11;100.00;95573.97;1030344;28;20050;-68
2020/12/14 00:57:41;;;;;;;70.23;39.20;;;;;;;-0.10;100.00;95566.03;1030181;28;20023;-70
2020/12/14 00:58:12;;;;;;;64.60;37.00;;;;;;;-0.11;100.00;95571.38;1030276;28;20383;-68
2020/12/14 00:58:42;;;;;;;69.53;39.33;;;;;;;-0.09;100.00;95577.16;1030237;28;20030;-68
2020/12/14 00:59:13;;;;;;;71.17;40.20;;;;;;;-0.14;100.00;95576.94;1033464;28;20026;-70
2020/12/14 00:59:43;;;;;;;66.53;37.30;;;;;;;-0.13;100.00;95570.81;1038249;28;20026;-68
2020/12/14 01:00:14;;;;;;;68.63;37.37;;;;;;;-0.10;100.00;95578.94;1038274;28;20025;-72
2020/12/14 01:00:44;;;;;;;55.57;33.10;;;;;;;-0.15;100.00;95576.16;1029991;28;20112;-68
2020/12/14 01:01:16;;;;;;;55.73;34.80;;;;;;;-0.16;100.00;95579.72;1022495;28;20031;-69
2020/12/14 01:01:51;;;;;;;58.13;34.72;;;;;;;-0.07;100.00;95585.47;1021676;29;20019;-68
2020/12/14 01:02:22;;;;;;;67.75;38.03;;;;;;;-0.10;100.00;95585.84;1024012;28;20063;-70
2020/12/14 01:02:53;;;;;;;61.78;35.80;;;;;;;-0.10;100.00;95588.44;1027334;28;20153;-69
2020/12/14 01:03:23;;;;;;;52.70;33.73;;;;;;;-0.20;100.00;95577.72;1030167;28;20500;-67
2020/12/14 01:03:54;;;;;;;62.70;36.47;;;;;;;-0.17;100.00;95585.84;1030604;28;20011;-68
2020/12/14 01:04:24;;;;;;;52.50;33.67;;;;;;;-0.12;100.00;95598.16;1025803;28;20030;-68
2020/12/14 01:04:55;;;;;;;52.23;33.67;;;;;;;-0.13;100.00;95594.81;1026376;28;20580;-70
2020/12/14 01:05:25;;;;;;;56.60;35.63;;;;;;;-0.19;100.00;95593.00;1022371;28;20516;-69
2020/12/14 01:05:56;;;;;;;57.53;34.30;;;;;;;-0.12;100.00;95603.34;1026405;28;20034;-69
2020/12/14 01:06:26;;;;;;;56.07;34.33;;;;;;;-0.15;100.00;95603.72;1030087;28;20519;-67
2020/12/14 01:06:57;;;;;;;55.37;32.57;;;;;;;-0.17;100.00;95610.84;1026277;28;20027;-67
2020/12/14 01:07:27;;;;;;;51.77;31.73;;;;;;;-0.21;100.00;95607.09;1042886;28;20028;-70
2020/12/14 01:07:58;;;;;;;65.47;34.87;;;;;;;-0.26;100.00;95608.47;1043049;28;20482;-68
2020/12/14 01:08:28;;;;;;;71.30;35.72;;;;;;;-0.35;100.00;95599.34;1038860;28;20072;-70
2020/12/14 01:08:59;;;;;;;73.97;36.33;;;;;;;-0.33;100.00;95605.13;1022281;28;20579;-68
2020/12/14 01:09:29;;;;;;;67.23;35.10;;;;;;;-0.35;100.00;95599.34;1026141;28;20026;-69
2020/12/14 01:09:59;;;;;;;70.30;36.27;;;;;;;-0.47;100.00;95577.72;1026203;28;20038;-67
2020/12/14 01:10:30;;;;;;;61.70;33.90;;;;;;;-0.48;100.00;95573.56;1026222;28;20034;-69
2020/12/14 01:11:00;;;;;;;65.03;35.63;;;;;;;-0.41;100.00;95589.81;1042364;28;20031;-70
2020/12/14 01:11:31;;;;;;;75.63;39.47;;;;;;;-0.44;100.00;95585.06;1050158;28;20478;-67
2020/12/14 01:12:02;;;;;;;70.23;37.27;;;;;;;-0.49;100.00;95574.56;1026208;28;20035;-68
2020/12/14 01:12:33;;;;;;;81.82;41.00;;;;;;;-0.44;100.00;95586.84;1022091;28;20058;-68
2020/12/14 01:13:04;;;;;;;93.88;42.55;;;;;;;-0.52;100.00;95567.22;1042976;28;20091;-69
2020/12/14 01:13:34;;;;;;;77.80;39.80;;;;;;;-0.42;100.00;95583.09;1026444;28;20492;-70
2020/12/14 01:14:05;;;;;;;83.67;41.33;;;;;;;-0.46;100.00;95575.97;1026310;28;20023;-67
2020/12/14 01:14:35;;;;;;;84.10;42.83;;;;;;;-0.40;100.00;95578.53;1030209;28;20505;-71
2020/12/14 01:15:06;;;;;;;79.23;42.23;;;;;;;-0.38;100.00;95581.69;1033970;28;20018;-67
2020/12/14 01:15:36;;;;;;;76.70;41.57;;;;;;;-0.40;100.00;95581.13;1026094;28;20023;-67
2020/12/14 01:16:10;;;;;;;91.20;43.90;;;;;;;-0.42;100.00;95577.94;1027786;28;20062;-69
2020/12/14 01:16:40;;;;;;;91.60;45.67;;;;;;;-0.40;100.00;95575.97;1026475;28;20023;-68
2020/12/14 01:17:11;;;;;;;87.77;43.60;;;;;;;-0.40;100.00;95581.13;1026567;28;20090;-67
2020/12/14 01:17:41;;;;;;;78.40;40.57;;;;;;;-0.41;100.00;95579.50;1026117;28;20676;-69
2020/12/14 01:18:12;;;;;;;62.20;38.87;;;;;;;-0.39;100.00;95580.13;1022321;29;20028;-68
2020/12/14 01:18:42;;;;;;;79.20;44.50;;;;;;;-0.38;100.00;95579.13;1018465;29;20028;-70
2020/12/14 01:19:13;;;;;;;81.77;44.87;;;;;;;-0.37;100.00;95580.72;1022196;29;20617;-68
2020/12/14 01:19:43;;;;;;;86.10;46.57;;;;;;;-0.25;100.00;95584.28;1022022;28;20504;-69
2020/12/14 01:20:14;;;;;;;99.23;49.80;;;;;;;-0.26;100.00;95572.38;1022487;28;20031;-68
2020/12/14 01:20:46;;;;;;;73.30;43.83;;;;;;;-0.19;100.00;95561.28;1022257;28;20488;-69
2020/12/14 01:21:20;;;;;;;84.45;47.80;;;;;;;-0.15;100.00;95572.78;1042180;28;20025;-71
2020/12/14 01:21:51;;;;;;;92.35;50.38;;;;;;;-0.08;100.00;95571.00;1043165;28;20107;-69
2020/12/14 01:22:21;;;;;;;97.83;53.03;;;;;;;-0.05;100.00;95566.22;1030164;28;20546;-70
2020/12/14 01:22:52;;;;;;;86.17;49.90;;;;;;;0.01;100.00;95567.22;1022695;28;20034;-70
2020/12/14 01:23:22;;;;;;;89.17;50.53;;;;;;;0.08;100.00;95568.00;1025975;28;20027;-67
2020/12/14 01:23:53;;;;;;;107.27;54.23;;;;;;;0.08;100.00;95562.84;1030265;28;20675;-68
2020/12/14 01:24:23;;;;;;;96.97;50.10;;;;;;;0.05;100.00;95562.44;1030226;28;20511;-69
2020/12/14 01:24:53;;;;;;;105.20;53.90;;;;;;;-0.03;100.00;95553.16;1030084;28;20018;-70
2020/12/14 01:25:24;;;;;;;112.93;54.53;;;;;;;0.04;100.00;95561.66;1029952;28;20034;-68
2020/12/14 01:25:54;;;;;;;97.93;51.70;;;;;;;0.06;100.00;95564.03;1034371;28;20038;-68
2020/12/14 01:26:25;;;;;;;94.00;49.80;;;;;;;0.09;100.00;95563.63;1033954;28;20114;-68
2020/12/14 01:26:55;;;;;;;98.63;50.57;;;;;;;0.10;100.00;95557.47;1030406;28;20060;-68
2020/12/14 01:27:26;;;;;;;88.77;50.60;;;;;;;0.16;100.00;95564.41;1029940;28;20531;-68
2020/12/14 01:27:56;;;;;;;94.83;51.87;;;;;;;0.18;100.00;95560.63;1029847;28;20116;-70
2020/12/14 01:28:27;;;;;;;92.40;49.80;;;;;;;0.18;100.00;95565.78;1026322;28;20027;-70
2020/12/14 01:28:57;;;;;;;90.07;50.30;;;;;;;0.23;100.00;95565.19;1026212;28;20026;-68
2020/12/14 01:29:28;;;;;;;82.10;48.57;;;;;;;0.28;100.00;95554.28;1025904;28;20526;-68
2020/12/14 01:29:58;;;;;;;94.17;50.07;;;;;;;0.32;100.00;95555.44;1022053;28;20027;-70
2020/12/14 01:30:29;;;;;;;104.87;51.07;;;;;;;0.24;100.00;95548.72;1026340;28;20511;-69
2020/12/14 01:30:59;;;;;;;84.73;46.83;;;;;;;0.27;100.00;95563.81;1026199;28;20046;-70
2020/12/14 01:31:30;;;;;;;81.47;45.97;;;;;;;0.30;100.00;95565.16;1025223;28;20023;-72
2020/12/14 01:32:00;;;;;;;83.53;46.30;;;;;;;0.28;100.00;95567.19;1026075;28;20030;-68
2020/12/14 01:32:31;;;;;;;74.87;43.30;;;;;;;0.18;100.00;95547.75;1022310;28;20031;-69
2020/12/14 01:33:01;;;;;;;87.13;47.63;;;;;;;0.23;100.00;95563.41;1043320;28;20645;-68
2020/12/14 01:33:32;;;;;;;75.33;44.60;;;;;;;0.22;100.00;95559.22;1042341;28;20434;-69
2020/12/14 01:34:02;;;;;;;86.73;45.70;;;;;;;0.15;100.00;95542.97;1026140;28;20072;-70
2020/12/14 01:34:33;;;;;;;79.68;44.42;;;;;;;0.28;100.00;95567.19;1022278;28;20110;-70
2020/12/14 01:35:04;;;;;;;68.63;40.93;;;;;;;0.25;100.00;95546.94;1025955;28;20022;-69
2020/12/14 01:35:34;;;;;;;73.00;42.53;;;;;;;0.28;100.00;95562.00;1025829;28;20051;-69
2020/12/14 01:36:05;;;;;;;81.97;43.90;;;;;;;0.27;100.00;95550.09;1026202;28;20019;-69
2020/12/14 01:36:35;;;;;;;66.32;39.25;;;;;;;0.26;100.00;95558.84;1026307;28;20108;-68
2020/12/14 01:37:05;;;;;;;70.40;40.92;;;;;;;0.21;100.00;95556.88;1026312;28;20023;-68
2020/12/14 01:37:36;;;;;;;69.40;39.27;;;;;;;0.18;100.00;95555.47;1029921;28;20423;-68
2020/12/14 01:38:06;;;;;;;69.38;40.33;;;;;;;0.17;100.00;95556.47;1028630;28;20042;-67
2020/12/14 01:38:37;;;;;;;66.70;38.20;;;;;;;0.14;100.00;95550.94;1047185;28;20031;-69
2020/12/14 01:39:07;;;;;;;76.47;40.33;;;;;;;0.05;100.00;95540.03;1047240;28;20023;-70
2020/12/14 01:39:38;;;;;;;67.95;38.80;;;;;;;0.08;100.00;95547.38;1050769;28;20023;-70
2020/12/14 01:40:08;;;;;;;65.20;37.17;;;;;;;0.07;100.00;95540.63;1051115;28;20535;-69
2020/12/14 01:40:39;;;;;;;74.72;40.40;;;;;;;0.06;100.00;95541.59;1051113;28;20031;-69
2020/12/14 01:41:09;;;;;;;78.60;41.13;;;;;;;0.01;100.00;95536.28;1046789;28;20028;-69
2020/12/14 01:41:40;;;;;;;66.40;36.20;;;;;;;0.02;100.00;95537.84;1032062;28;20067;-67
2020/12/14 01:42:10;;;;;;;72.82;39.85;;;;;;;0.00;100.00;95539.84;1025428;28;20023;-70
2020/12/14 01:42:41;;;;;;;72.57;40.15;;;;;;;0.00;100.00;95537.28;1026151;28;20606;-67
2020/12/14 01:43:12;;;;;;;65.68;38.08;;;;;;;-0.09;100.00;95525.56;1022035;28;20016;-69
2020/12/14 01:43:43;;;;;;;67.90;38.00;;;;;;;-0.12;100.00;95531.13;1025854;28;20070;-68
2020/12/14 01:44:13;;;;;;;72.93;40.53;;;;;;;-0.13;100.00;95532.13;1021480;29;20110;-69
2020/12/14 01:44:44;;;;;;;75.13;39.90;;;;;;;-0.10;100.00;95540.25;1029699;28;20460;-68
2020/12/14 01:45:15;;;;;;;76.13;39.10;;;;;;;-0.12;100.00;95542.22;1030102;28;20026;-69
2020/12/14 01:45:46;;;;;;;69.13;36.75;;;;;;;-0.12;100.00;95541.44;1030005;28;20050;-70
2020/12/14 01:46:27;;;;;;;70.30;38.70;;;;;;;-0.13;100.00;95545.81;1026153;28;20420;-68
2020/12/14 01:46:59;;;;;;;59.50;35.40;;;;;;;-0.09;100.00;95541.03;1030204;28;20434;-69
2020/12/14 01:47:39;;;;;;;75.78;39.85;;;;;;;-0.16;100.00;95537.69;1030556;28;20026;-70
2020/12/14 01:48:10;;;;;;;73.05;37.50;;;;;;;-0.16;100.00;95537.69;1026162;28;20149;-68
2020/12/14 01:48:40;;;;;;;79.78;40.35;;;;;;;-0.17;100.00;95539.44;1043750;28;20035;-69
2020/12/14 01:49:11;;;;;;;57.80;34.80;;;;;;;-0.14;100.00;95536.47;1035003;28;20045;-69
2020/12/14 01:49:42;;;;;;;66.20;36.57;;;;;;;-0.12;100.00;95539.66;1022193;29;20030;-67
2020/12/14 01:50:12;;;;;;;70.70;38.83;;;;;;;-0.12;100.00;95549.19;1022161;28;20822;-69
2020/12/14 01:50:43;;;;;;;66.23;37.83;;;;;;;-0.21;100.00;95540.06;1026216;28;20015;-68
2020/12/14 01:51:13;;;;;;;71.70;38.03;;;;;;;-0.12;100.00;95549.19;1026311;28;20432;-70
2020/12/14 01:51:43;;;;;;;64.43;35.67;;;;;;;-0.21;100.00;95545.22;1025899;28;20019;-68
2020/12/14 01:52:14;;;;;;;70.80;36.77;;;;;;;-0.18;100.00;95542.25;1022125;29;20015;-68
2020/12/14 01:52:45;;;;;;;66.17;36.03;;;;;;;-0.17;100.00;95551.56;1022130;29;20077;-70
2020/12/14 01:53:16;;;;;;;63.38;36.05;;;;;;;-0.22;100.00;95543.63;1022225;29;20458;-66
2020/12/14 01:53:46;;;;;;;65.07;36.37;;;;;;;-0.21;100.00;95545.22;1017405;29;20031;-69
2020/12/14 01:54:22;;;;;;;64.40;35.90;;;;;;;-0.22;100.00;95552.16;1025919;28;20022;-69
2020/12/14 01:54:53;;;;;;;58.90;34.28;;;;;;;-0.26;100.00;95541.44;1022229;29;20106;-70
2020/12/14 01:55:23;;;;;;;68.83;37.17;;;;;;;-0.21;100.00;95547.78;1026713;28;20038;-71
2020/12/14 01:55:54;;;;;;;64.37;34.70;;;;;;;-0.28;100.00;95533.13;1022263;29;20023;-70
2020/12/14 01:56:26;;;;;;;72.68;38.72;;;;;;;-0.24;100.00;95544.59;1029828;28;20050;-69
2020/12/14 01:56:56;;;;;;;65.65;35.95;;;;;;;-0.24;100.00;95544.59;1026027;28;20782;-72
2020/12/14 01:57:27;;;;;;;67.37;36.27;;;;;;;-0.24;100.00;95544.59;1022161;29;20020;-68
2020/12/14 01:57:58;;;;;;;55.93;32.27;;;;;;;-0.27;100.00;95544.22;1022143;29;20100;-68
2020/12/14 01:58:28;;;;;;;70.37;37.87;;;;;;;-0.25;100.00;95543.03;1021912;28;20076;-68
2020/12/14 01:58:59;;;;;;;66.47;35.47;;;;;;;-0.24;100.00;95543.81;1014263;29;20020;-68
2020/12/14 01:59:29;;;;;;;62.63;36.43;;;;;;;-0.27;100.00;95539.06;1014296;29;20020;-69
2020/12/14 02:00:00;;;;;;;65.70;37.37;;;;;;;-0.28;100.00;95532.31;1022018;29;20436;-68
2020/12/14 02:00:30;;;;;;;64.17;36.47;;;;;;;-0.19;100.00;95545.81;1024631;28;20027;-67
2020/12/14 02:01:02;;;;;;;64.33;35.87;;;;;;;-0.28;100.00;95535.69;1030088;28;20621;-70
2020/12/14 02:01:33;;;;;;;68.53;36.00;;;;;;;-0.18;100.00;95547.41;1017736;29;20496;-68
2020/12/14 02:02:03;;;;;;;67.60;37.90;;;;;;;-0.20;100.00;95544.22;1022180;28;20043;-71
2020/12/14 02:02:34;;;;;;;60.10;35.63;;;;;;;-0.26;100.00;95538.88;1026421;28;20478;-68
2020/12/14 02:03:04;;;;;;;53.87;33.93;;;;;;;-0.26;100.00;95540.66;1022320;28;20089;-71
2020/12/14 02:03:35;;;;;;;66.93;35.70;;;;;;;-0.25;100.00;95540.44;1029748;28;20052;-69
2020/12/14 02:04:05;;;;;;;57.43;33.33;;;;;;;-0.33;100.00;95522.63;1029938;28;20416;-68
2020/12/14 02:04:35;;;;;;;57.00;33.00;;;;;;;-0.22;100.00;95536.69;1026050;28;20050;-71
2020/12/14 02:05:07;;;;;;;63.50;34.87;;;;;;;-0.27;100.00;95539.88;1030166;28;20026;-68
2020/12/14 02:05:37;;;;;;;61.80;32.53;;;;;;;-0.32;100.00;95529.34;1021918;28;20023;-70
2020/12/14 02:06:08;;;;;;;69.90;37.10;;;;;;;-0.35;100.00;95527.19;1022306;28;20063;-69
2020/12/14 02:06:38;;;;;;;57.93;34.37;;;;;;;-0.24;100.00;95539.44;1034270;28;20018;-68
2020/12/14 02:07:10;;;;;;;53.40;33.20;;;;;;;-0.24;100.00;95544.59;1034142;28;20026;-69
2020/12/14 02:07:40;;;;;;;54.10;32.92;;;;;;;-0.31;100.00;95528.34;1022181;29;20024;-67
2020/12/14 02:08:11;;;;;;;51.83;31.57;;;;;;;-0.27;100.00;95533.91;1022721;28;20035;-69
2020/12/14 02:08:41;;;;;;;56.77;33.30;;;;;;;-0.21;100.00;95547.78;1026380;28;20413;-68
2020/12/14 02:09:12;;;;;;;58.97;32.80;;;;;;;-0.22;100.00;95541.06;1034429;28;20071;-71
2020/12/14 02:09:42;;;;;;;58.40;31.87;;;;;;;-0.22;100.00;95547.00;1038049;28;20030;-68
2020/12/14 02:10:13;;;;;;;58.83;33.17;;;;;;;-0.22;100.00;95546.22;1038262;28;20029;-69
2020/12/14 02:10:43;;;;;;;44.87;28.90;;;;;;;-0.18;100.00;95542.25;1033956;28;20022;-68
2020/12/14 02:11:14;;;;;;;55.80;32.20;;;;;;;-0.25;100.00;95531.94;1034178;28;20022;-68
2020/12/14 02:11:44;;;;;;;53.80;31.23;;;;;;;-0.18;100.00;95549.97;1033312;28;20022;-68
2020/12/14 02:12:15;;;;;;;47.87;29.50;;;;;;;-0.27;100.00;95531.31;1034146;28;20022;-69
2020/12/14 02:12:45;;;;;;;53.90;30.00;;;;;;;-0.21;100.00;95547.78;1030161;28;20026;-68
2020/12/14 02:13:16;;;;;;;48.47;28.13;;;;;;;-0.22;100.00;95552.16;1030097;28;20131;-67
2020/12/14 02:13:47;;;;;;;45.80;27.40;;;;;;;-0.32;100.00;95534.50;1030013;28;20026;-68
2020/12/14 02:14:17;;;;;;;51.23;28.83;;;;;;;-0.24;100.00;95551.56;1029989;28;20037;-67
2020/12/14 02:14:52;;;;;;;53.60;29.90;;;;;;;-0.24;100.00;95552.34;1029964;28;20018;-68
2020/12/14 02:15:22;;;;;;;50.83;29.27;;;;;;;-0.21;100.00;95560.69;1029776;28;20847;-69
2020/12/14 02:15:52;;;;;;;51.10;29.00;;;;;;;-0.22;100.00;95556.53;1030700;28;20056;-67
2020/12/14 02:16:23;;;;;;;54.90;30.27;;;;;;;-0.28;100.00;95551.16;1029975;28;20400;-68
2020/12/14 02:16:53;;;;;;;52.70;29.93;;;;;;;-0.29;100.00;95552.16;1030419;28;20080;-69
2020/12/14 02:17:25;;;;;;;53.03;29.87;;;;;;;-0.35;100.00;95541.84;1038048;28;20021;-69
2020/12/14 02:17:55;;;;;;;51.55;30.17;;;;;;;-0.29;100.00;95552.16;1037969;28;20029;-67
2020/12/14 02:18:26;;;;;;;52.70;29.30;;;;;;;-0.30;100.00;95548.00;1030037;28;20592;-67
2020/12/14 02:18:56;;;;;;;54.97;30.73;;;;;;;-0.42;100.00;95541.84;1046921;28;20035;-70
2020/12/14 02:19:26;;;;;;;54.80;30.07;;;;;;;-0.34;100.00;95553.75;1039000;28;20045;-68
2020/12/14 02:19:57;;;;;;;53.03;30.73;;;;;;;-0.43;100.00;95537.69;1026024;28;20037;-68